sensor_id;sensor_type;location;lat;lon;timestamp;pressure;altitude;pressure_sealevel;temperature;humidity
13836;BME280;6988;52.614;13.500;2023-02-23T00:03:42;54828.41;;;-143.77;79.71
13836;BME280;6988;52.614;13.500;2023-02-23T00:08:36;54805.81;;;-143.77;80.18
13836;BME280;6988;52.614;13.500;2023-02-23T00:13:28;54828.41;;;-143.77;80.16
13836;BME280;6988;52.614;13.500;2023-02-23T00:18:20;54834.56;;;-143.77;79.82
13836;BME280;6988;52.614;13.500;2023-02-23T00:23:13;54820.19;;;-143.77;80.09
13836;BME280;6988;52.614;13.500;2023-02-23T00:28:05;54834.56;;;-143.77;79.99
13836;BME280;6988;52.614;13.500;2023-02-23T00:32:58;54832.50;;;-143.77;80.01
13836;BME280;6988;52.614;13.500;2023-02-23T00:37:49;54844.81;;;-143.77;79.97
13836;BME280;6988;52.614;13.500;2023-02-23T00:42:44;54830.44;;;-143.77;79.87
13836;BME280;6988;52.614;13.500;2023-02-23T00:47:37;54811.97;;;-143.77;79.58
13836;BME280;6988;52.614;13.500;2023-02-23T00:52:29;54816.09;;;-143.77;79.90
13836;BME280;6988;52.614;13.500;2023-02-23T00:57:21;54838.66;;;-143.77;79.75
13836;BME280;6988;52.614;13.500;2023-02-23T01:02:14;54836.59;;;-143.77;79.91
13836;BME280;6988;52.614;13.500;2023-02-23T01:07:06;54826.34;;;-143.77;80.13
13836;BME280;6988;52.614;13.500;2023-02-23T01:11:58;54816.09;;;-143.77;80.13
13836;BME280;6988;52.614;13.500;2023-02-23T01:16:51;54830.44;;;-143.77;79.82
13836;BME280;6988;52.614;13.500;2023-02-23T01:21:44;54795.56;;;-143.77;79.97
13836;BME280;6988;52.614;13.500;2023-02-23T01:26:39;54836.59;;;-143.77;80.65
13836;BME280;6988;52.614;13.500;2023-02-23T01:31:31;54832.50;;;-143.77;79.75
13836;BME280;6988;52.614;13.500;2023-02-23T01:36:24;54803.78;;;-143.77;79.95
13836;BME280;6988;52.614;13.500;2023-02-23T01:41:18;54873.53;;;-143.77;79.84
13836;BME280;6988;52.614;13.500;2023-02-23T01:46:10;54836.59;;;-143.77;80.05
13836;BME280;6988;52.614;13.500;2023-02-23T01:51:07;54869.44;;;-143.77;80.44
13836;BME280;6988;52.614;13.500;2023-02-23T01:56:07;54844.81;;;-143.77;80.47
13836;BME280;6988;52.614;13.500;2023-02-23T02:01:02;54846.88;;;-143.77;80.13
13836;BME280;6988;52.614;13.500;2023-02-23T02:05:55;54830.44;;;-143.77;80.64
13836;BME280;6988;52.614;13.500;2023-02-23T02:10:48;54853.03;;;-143.77;80.83
13836;BME280;6988;52.614;13.500;2023-02-23T02:16:19;54865.34;;;-143.77;81.31
13836;BME280;6988;52.614;13.500;2023-02-23T02:21:49;54871.50;;;-143.77;81.50
13836;BME280;6988;52.614;13.500;2023-02-23T02:27:01;54842.75;;;-143.77;81.40
13836;BME280;6988;52.614;13.500;2023-02-23T02:32:36;54869.44;;;-143.77;80.89
13836;BME280;6988;52.614;13.500;2023-02-23T02:37:54;54838.66;;;-143.77;81.11
13836;BME280;6988;52.614;13.500;2023-02-23T02:42:59;54869.44;;;-143.77;81.02
13836;BME280;6988;52.614;13.500;2023-02-23T02:48:07;54836.59;;;-143.77;81.33
13836;BME280;6988;52.614;13.500;2023-02-23T02:53:06;54883.81;;;-143.77;81.54
13836;BME280;6988;52.614;13.500;2023-02-23T02:58:03;54869.44;;;-143.77;81.60
13836;BME280;6988;52.614;13.500;2023-02-23T03:02:57;54842.75;;;-143.77;81.70
13836;BME280;6988;52.614;13.500;2023-02-23T03:08:20;54865.34;;;-143.77;81.70
13836;BME280;6988;52.614;13.500;2023-02-23T03:13:45;54885.84;;;-143.77;82.34
13836;BME280;6988;52.614;13.500;2023-02-23T03:19:13;54844.81;;;-143.77;82.31
13836;BME280;6988;52.614;13.500;2023-02-23T03:24:37;54904.31;;;-143.77;82.31
13836;BME280;6988;52.614;13.500;2023-02-23T03:29:57;54840.72;;;-143.77;81.92
13836;BME280;6988;52.614;13.500;2023-02-23T03:35:18;54836.59;;;-143.77;82.08
13836;BME280;6988;52.614;13.500;2023-02-23T03:40:36;54885.84;;;-143.77;82.38
13836;BME280;6988;52.614;13.500;2023-02-23T03:45:48;54867.38;;;-143.77;82.71
13836;BME280;6988;52.614;13.500;2023-02-23T03:51:03;54830.44;;;-143.77;82.30
13836;BME280;6988;52.614;13.500;2023-02-23T03:56:18;54877.66;;;-143.77;82.05
13836;BME280;6988;52.614;13.500;2023-02-23T04:01:33;54844.81;;;-143.77;82.38
13836;BME280;6988;52.614;13.500;2023-02-23T04:06:45;54914.59;;;-143.77;82.47
13836;BME280;6988;52.614;13.500;2023-02-23T04:12:05;54933.06;;;-143.77;82.78
13836;BME280;6988;52.614;13.500;2023-02-23T04:17:17;54898.16;;;-143.77;82.78
13836;BME280;6988;52.614;13.500;2023-02-23T04:22:14;54855.06;;;-143.77;82.36
13836;BME280;6988;52.614;13.500;2023-02-23T04:27:07;54861.22;;;-143.77;82.39
13836;BME280;6988;52.614;13.500;2023-02-23T04:31:59;54840.72;;;-143.77;82.79
13836;BME280;6988;52.614;13.500;2023-02-23T04:36:50;54896.13;;;-143.77;82.49
13836;BME280;6988;52.614;13.500;2023-02-23T04:41:42;54883.81;;;-143.77;83.21
13836;BME280;6988;52.614;13.500;2023-02-23T04:46:35;54902.28;;;-143.77;83.65
13836;BME280;6988;52.614;13.500;2023-02-23T04:51:27;54933.06;;;-143.77;83.63
13836;BME280;6988;52.614;13.500;2023-02-23T04:56:21;54894.06;;;-143.77;83.50
13836;BME280;6988;52.614;13.500;2023-02-23T05:01:14;54885.84;;;-143.77;83.32
13836;BME280;6988;52.614;13.500;2023-02-23T05:06:07;54910.47;;;-143.77;83.52
13836;BME280;6988;52.614;13.500;2023-02-23T05:10:59;54916.63;;;-143.77;83.51
13836;BME280;6988;52.614;13.500;2023-02-23T05:15:55;54869.44;;;-143.77;83.52
13836;BME280;6988;52.614;13.500;2023-02-23T05:20:51;54955.63;;;-143.77;82.88
13836;BME280;6988;52.614;13.500;2023-02-23T05:25:44;54883.81;;;-143.77;83.19
13836;BME280;6988;52.614;13.500;2023-02-23T05:30:36;54904.31;;;-143.77;83.06
13836;BME280;6988;52.614;13.500;2023-02-23T05:35:28;54918.69;;;-143.77;83.51
13836;BME280;6988;52.614;13.500;2023-02-23T05:40:20;54914.59;;;-143.77;83.72
13836;BME280;6988;52.614;13.500;2023-02-23T05:45:14;54914.59;;;-143.77;83.82
13836;BME280;6988;52.614;13.500;2023-02-23T05:50:08;54937.16;;;-143.77;83.83
13836;BME280;6988;52.614;13.500;2023-02-23T05:55:01;54904.31;;;-143.77;84.26
13836;BME280;6988;52.614;13.500;2023-02-23T05:59:53;54916.63;;;-143.77;84.31
13836;BME280;6988;52.614;13.500;2023-02-23T06:04:46;54943.31;;;-143.77;84.01
13836;BME280;6988;52.614;13.500;2023-02-23T06:09:38;54902.28;;;-143.77;83.96
13836;BME280;6988;52.614;13.500;2023-02-23T06:14:30;54935.09;;;-143.77;84.06
13836;BME280;6988;52.614;13.500;2023-02-23T06:19:22;54918.69;;;-143.77;83.93
13836;BME280;6988;52.614;13.500;2023-02-23T06:24:16;54951.53;;;-143.77;84.13
13836;BME280;6988;52.614;13.500;2023-02-23T06:29:08;54912.53;;;-143.77;84.31
13836;BME280;6988;52.614;13.500;2023-02-23T06:34:01;54906.38;;;-143.77;84.74
13836;BME280;6988;52.614;13.500;2023-02-23T06:38:55;54887.91;;;-143.77;85.11
13836;BME280;6988;52.614;13.500;2023-02-23T06:43:48;54910.47;;;-143.77;85.25
13836;BME280;6988;52.614;13.500;2023-02-23T06:48:41;54902.28;;;-143.77;85.21
13836;BME280;6988;52.614;13.500;2023-02-23T06:53:33;54963.84;;;-143.77;85.33
13836;BME280;6988;52.614;13.500;2023-02-23T06:58:25;54900.22;;;-143.77;85.16
13836;BME280;6988;52.614;13.500;2023-02-23T07:03:19;54918.69;;;-143.77;84.95
13836;BME280;6988;52.614;13.500;2023-02-23T07:08:12;54894.06;;;-143.77;85.14
13836;BME280;6988;52.614;13.500;2023-02-23T07:13:04;54904.31;;;-143.77;84.92
13836;BME280;6988;52.614;13.500;2023-02-23T07:17:56;54918.69;;;-143.77;84.29
13836;BME280;6988;52.614;13.500;2023-02-23T07:22:49;54879.69;;;-143.77;84.42
13836;BME280;6988;52.614;13.500;2023-02-23T07:27:41;54885.84;;;-143.77;84.27
13836;BME280;6988;52.614;13.500;2023-02-23T07:32:34;54861.22;;;-143.77;83.66
13836;BME280;6988;52.614;13.500;2023-02-23T07:37:28;54894.06;;;-143.77;83.76
13836;BME280;6988;52.614;13.500;2023-02-23T07:42:21;54840.72;;;-143.77;82.79
13836;BME280;6988;52.614;13.500;2023-02-23T07:47:13;54850.97;;;-143.77;82.57
13836;BME280;6988;52.614;13.500;2023-02-23T07:52:05;54850.97;;;-143.77;82.14
13836;BME280;6988;52.614;13.500;2023-02-23T07:56:57;54832.50;;;-143.77;82.01
13836;BME280;6988;52.614;13.500;2023-02-23T08:01:50;54869.44;;;-143.77;81.24
13836;BME280;6988;52.614;13.500;2023-02-23T08:06:42;54822.25;;;-143.77;81.33
13836;BME280;6988;52.614;13.500;2023-02-23T08:11:34;54836.59;;;-143.77;80.97
13836;BME280;6988;52.614;13.500;2023-02-23T08:16:26;54816.09;;;-143.77;80.68
13836;BME280;6988;52.614;13.500;2023-02-23T08:21:19;54820.19;;;-143.77;79.79
13836;BME280;6988;52.614;13.500;2023-02-23T08:26:13;54809.94;;;-143.77;79.01
13836;BME280;6988;52.614;13.500;2023-02-23T08:31:08;54766.84;;;-143.77;78.81
13836;BME280;6988;52.614;13.500;2023-02-23T08:36:00;54781.19;;;-143.77;77.53
13836;BME280;6988;52.614;13.500;2023-02-23T08:40:54;54779.16;;;-143.77;77.14
13836;BME280;6988;52.614;13.500;2023-02-23T08:45:47;54754.53;;;-143.77;76.37
13836;BME280;6988;52.614;13.500;2023-02-23T08:50:39;54748.38;;;-143.77;76.43
13836;BME280;6988;52.614;13.500;2023-02-23T08:55:31;54760.69;;;-143.77;76.98
13836;BME280;6988;52.614;13.500;2023-02-23T09:00:26;54738.09;;;-143.77;76.44
13836;BME280;6988;52.614;13.500;2023-02-23T09:05:18;54791.47;;;-143.77;75.34
13836;BME280;6988;52.614;13.500;2023-02-23T09:10:13;54742.22;;;-143.77;75.66
13836;BME280;6988;52.614;13.500;2023-02-23T09:15:07;54770.94;;;-143.77;76.43
13836;BME280;6988;52.614;13.500;2023-02-23T09:20:01;54777.09;;;-143.77;76.72
13836;BME280;6988;52.614;13.500;2023-02-23T09:24:53;54734.00;;;-143.77;77.30
13836;BME280;6988;52.614;13.500;2023-02-23T09:29:45;54764.78;;;-143.77;76.23
13836;BME280;6988;52.614;13.500;2023-02-23T09:34:38;54719.63;;;-143.77;75.90
13836;BME280;6988;52.614;13.500;2023-02-23T09:39:31;54738.09;;;-143.77;75.46
13836;BME280;6988;52.614;13.500;2023-02-23T09:44:41;54723.75;;;-143.77;75.55
13836;BME280;6988;52.614;13.500;2023-02-23T09:49:40;54711.44;;;-143.77;74.80
13836;BME280;6988;52.614;13.500;2023-02-23T09:54:35;54680.66;;;-143.77;74.77
13836;BME280;6988;52.614;13.500;2023-02-23T09:59:27;54701.16;;;-143.77;72.37
13836;BME280;6988;52.614;13.500;2023-02-23T10:04:23;54705.28;;;-143.77;72.83
13836;BME280;6988;52.614;13.500;2023-02-23T10:09:29;54631.41;;;-143.77;72.49
13836;BME280;6988;52.614;13.500;2023-02-23T10:14:44;54656.03;;;-143.77;72.01
13836;BME280;6988;52.614;13.500;2023-02-23T10:19:49;54660.13;;;-143.77;71.43
13836;BME280;6988;52.614;13.500;2023-02-23T10:24:51;54651.91;;;-143.77;72.03
13836;BME280;6988;52.614;13.500;2023-02-23T10:29:49;54635.50;;;-143.77;71.93
13836;BME280;6988;52.614;13.500;2023-02-23T10:34:44;54592.41;;;-143.77;70.50
13836;BME280;6988;52.614;13.500;2023-02-23T10:39:40;54602.66;;;-143.77;70.05
13836;BME280;6988;52.614;13.500;2023-02-23T10:44:32;54569.84;;;-143.77;69.91
13836;BME280;6988;52.614;13.500;2023-02-23T10:49:39;54582.16;;;-143.77;69.34
13836;BME280;6988;52.614;13.500;2023-02-23T10:54:39;54592.41;;;-143.77;68.95
13836;BME280;6988;52.614;13.500;2023-02-23T10:59:34;54590.34;;;-143.77;69.02
13836;BME280;6988;52.614;13.500;2023-02-23T11:04:30;54590.34;;;-143.77;69.43
13836;BME280;6988;52.614;13.500;2023-02-23T11:09:27;54580.09;;;-143.77;69.28
13836;BME280;6988;52.614;13.500;2023-02-23T11:14:24;54563.69;;;-143.77;69.02
13836;BME280;6988;52.614;13.500;2023-02-23T11:19:23;54543.16;;;-143.77;68.03
13836;BME280;6988;52.614;13.500;2023-02-23T11:24:25;54528.78;;;-143.77;68.22
13836;BME280;6988;52.614;13.500;2023-02-23T11:29:29;54539.06;;;-143.77;67.83
13836;BME280;6988;52.614;13.500;2023-02-23T11:34:29;54483.66;;;-143.77;67.15
13836;BME280;6988;52.614;13.500;2023-02-23T11:39:23;54491.88;;;-143.77;67.32
13836;BME280;6988;52.614;13.500;2023-02-23T11:44:21;54489.81;;;-143.77;66.10
13836;BME280;6988;52.614;13.500;2023-02-23T11:49:20;54526.75;;;-143.77;65.85
13836;BME280;6988;52.614;13.500;2023-02-23T11:54:21;54498.03;;;-143.77;66.82
13836;BME280;6988;52.614;13.500;2023-02-23T11:59:21;54459.03;;;-143.77;66.35
13836;BME280;6988;52.614;13.500;2023-02-23T12:04:26;54426.19;;;-143.77;65.56
13836;BME280;6988;52.614;13.500;2023-02-23T12:09:26;54442.63;;;-143.77;64.89
13836;BME280;6988;52.614;13.500;2023-02-23T12:14:29;54430.31;;;-143.77;64.14
13836;BME280;6988;52.614;13.500;2023-02-23T12:19:27;54436.47;;;-143.77;63.90
13836;BME280;6988;52.614;13.500;2023-02-23T12:24:38;54409.78;;;-143.77;63.54
13836;BME280;6988;52.614;13.500;2023-02-23T12:29:41;54444.66;;;-143.77;63.70
13836;BME280;6988;52.614;13.500;2023-02-23T12:34:43;54428.25;;;-143.77;63.45
13836;BME280;6988;52.614;13.500;2023-02-23T12:39:42;54434.41;;;-143.77;63.45
13836;BME280;6988;52.614;13.500;2023-02-23T12:44:43;54395.44;;;-143.77;64.23
13836;BME280;6988;52.614;13.500;2023-02-23T12:49:43;54426.19;;;-143.77;63.66
13836;BME280;6988;52.614;13.500;2023-02-23T12:54:36;54438.50;;;-143.77;64.18
13836;BME280;6988;52.614;13.500;2023-02-23T13:00:04;54413.88;;;-143.77;64.16
13836;BME280;6988;52.614;13.500;2023-02-23T13:05:15;54401.56;;;-143.77;63.42
13836;BME280;6988;52.614;13.500;2023-02-23T13:10:24;54405.69;;;-143.77;63.51
13836;BME280;6988;52.614;13.500;2023-02-23T13:15:34;54403.63;;;-143.77;63.66
13836;BME280;6988;52.614;13.500;2023-02-23T13:20:36;54418.00;;;-143.77;63.56
13836;BME280;6988;52.614;13.500;2023-02-23T13:25:42;54418.00;;;-143.77;63.84
13836;BME280;6988;52.614;13.500;2023-02-23T13:30:38;54420.03;;;-143.77;64.26
13836;BME280;6988;52.614;13.500;2023-02-23T13:35:36;54415.94;;;-143.77;65.21
13836;BME280;6988;52.614;13.500;2023-02-23T13:40:34;54444.66;;;-143.77;64.83
13836;BME280;6988;52.614;13.500;2023-02-23T13:45:47;54424.16;;;-143.77;65.03
13836;BME280;6988;52.614;13.500;2023-02-23T13:50:50;54442.63;;;-143.77;65.28
13836;BME280;6988;52.614;13.500;2023-02-23T13:55:49;54452.88;;;-143.77;65.84
13836;BME280;6988;52.614;13.500;2023-02-23T14:00:54;54465.19;;;-143.77;66.28
13836;BME280;6988;52.614;13.500;2023-02-23T14:05:58;54446.72;;;-143.77;67.11
13836;BME280;6988;52.614;13.500;2023-02-23T14:10:52;54483.66;;;-143.77;67.34
13836;BME280;6988;52.614;13.500;2023-02-23T14:16:07;54495.97;;;-143.77;67.32
13836;BME280;6988;52.614;13.500;2023-02-23T14:21:21;54479.56;;;-143.77;67.51
13836;BME280;6988;52.614;13.500;2023-02-23T14:26:37;54500.06;;;-143.77;68.29
13836;BME280;6988;52.614;13.500;2023-02-23T14:31:31;54493.91;;;-143.77;68.87
13836;BME280;6988;52.614;13.500;2023-02-23T14:36:43;54483.66;;;-143.77;69.17
13836;BME280;6988;52.614;13.500;2023-02-23T14:41:44;54518.53;;;-143.77;69.87
13836;BME280;6988;52.614;13.500;2023-02-23T14:53:31;54537.00;;;-143.77;70.54
13836;BME280;6988;52.614;13.500;2023-02-23T14:58:27;54528.78;;;-143.77;70.89
13836;BME280;6988;52.614;13.500;2023-02-23T15:03:19;54539.06;;;-143.77;71.24
13836;BME280;6988;52.614;13.500;2023-02-23T15:08:15;54555.47;;;-143.77;72.06
13836;BME280;6988;52.614;13.500;2023-02-23T15:13:16;54526.75;;;-143.77;72.65
13836;BME280;6988;52.614;13.500;2023-02-23T15:24:24;54524.69;;;-143.77;72.99
13836;BME280;6988;52.614;13.500;2023-02-23T15:29:21;54545.22;;;-143.77;73.06
13836;BME280;6988;52.614;13.500;2023-02-23T15:34:15;54561.63;;;-143.77;73.02
13836;BME280;6988;52.614;13.500;2023-02-23T15:39:16;54528.78;;;-143.77;73.12
13836;BME280;6988;52.614;13.500;2023-02-23T15:44:15;54532.91;;;-143.77;73.91
13836;BME280;6988;52.614;13.500;2023-02-23T15:49:13;54565.72;;;-143.77;74.07
13836;BME280;6988;52.614;13.500;2023-02-23T15:54:17;54547.25;;;-143.77;74.75
13836;BME280;6988;52.614;13.500;2023-02-23T15:59:17;54573.94;;;-143.77;75.06
13836;BME280;6988;52.614;13.500;2023-02-23T16:04:17;54598.56;;;-143.77;75.65
13836;BME280;6988;52.614;13.500;2023-02-23T16:09:14;54588.31;;;-143.77;76.01
13836;BME280;6988;52.614;13.500;2023-02-23T16:14:14;54557.53;;;-143.77;75.86
13836;BME280;6988;52.614;13.500;2023-02-23T16:19:12;54578.03;;;-143.77;76.31
13836;BME280;6988;52.614;13.500;2023-02-23T16:24:12;54596.50;;;-143.77;76.46
13836;BME280;6988;52.614;13.500;2023-02-23T16:29:17;54582.16;;;-143.77;76.78
13836;BME280;6988;52.614;13.500;2023-02-23T16:34:23;54586.25;;;-143.77;77.60
13836;BME280;6988;52.614;13.500;2023-02-23T16:39:17;54588.31;;;-143.77;78.30
13836;BME280;6988;52.614;13.500;2023-02-23T16:44:16;54610.88;;;-143.77;78.67
13836;BME280;6988;52.614;13.500;2023-02-23T16:49:11;54590.34;;;-143.77;79.54
13836;BME280;6988;52.614;13.500;2023-02-23T16:54:03;54617.03;;;-143.77;80.02
13836;BME280;6988;52.614;13.500;2023-02-23T16:59:01;54584.19;;;-143.77;80.55
13836;BME280;6988;52.614;13.500;2023-02-23T17:03:54;54602.66;;;-143.77;81.15
13836;BME280;6988;52.614;13.500;2023-02-23T17:08:48;54621.13;;;-143.77;81.67
13836;BME280;6988;52.614;13.500;2023-02-23T17:13:40;54635.50;;;-143.77;82.50
13836;BME280;6988;52.614;13.500;2023-02-23T17:18:35;54627.28;;;-143.77;82.93
13836;BME280;6988;52.614;13.500;2023-02-23T17:23:30;54621.13;;;-143.77;83.51
13836;BME280;6988;52.614;13.500;2023-02-23T17:28:32;54633.44;;;-143.77;84.06
13836;BME280;6988;52.614;13.500;2023-02-23T17:33:24;54614.97;;;-143.77;84.44
13836;BME280;6988;52.614;13.500;2023-02-23T17:38:18;54660.13;;;-143.77;84.89
13836;BME280;6988;52.614;13.500;2023-02-23T17:43:11;54639.59;;;-143.77;85.10
13836;BME280;6988;52.614;13.500;2023-02-23T17:48:03;54649.88;;;-143.77;85.31
13836;BME280;6988;52.614;13.500;2023-02-23T17:52:56;54651.91;;;-143.77;85.59
13836;BME280;6988;52.614;13.500;2023-02-23T17:57:49;54619.09;;;-143.77;85.96
13836;BME280;6988;52.614;13.500;2023-02-23T18:02:43;54623.19;;;-143.77;86.16
13836;BME280;6988;52.614;13.500;2023-02-23T18:07:36;54635.50;;;-143.77;86.74
13836;BME280;6988;52.614;13.500;2023-02-23T18:12:28;54639.59;;;-143.77;87.01
13836;BME280;6988;52.614;13.500;2023-02-23T18:17:21;54617.03;;;-143.77;87.04
13836;BME280;6988;52.614;13.500;2023-02-23T18:22:13;54631.41;;;-143.77;87.32
13836;BME280;6988;52.614;13.500;2023-02-23T18:27:05;54672.44;;;-143.77;87.33
13836;BME280;6988;52.614;13.500;2023-02-23T18:31:59;54664.22;;;-143.77;87.68
13836;BME280;6988;52.614;13.500;2023-02-23T18:36:55;54639.59;;;-143.77;87.84
13836;BME280;6988;52.614;13.500;2023-02-23T18:41:48;54664.22;;;-143.77;87.90
13836;BME280;6988;52.614;13.500;2023-02-23T18:46:43;54627.28;;;-143.77;87.99
13836;BME280;6988;52.614;13.500;2023-02-23T18:51:35;54651.91;;;-143.77;87.97
13836;BME280;6988;52.614;13.500;2023-02-23T18:56:28;54633.44;;;-143.77;88.45
13836;BME280;6988;52.614;13.500;2023-02-23T19:01:23;54647.81;;;-143.77;88.24
13836;BME280;6988;52.614;13.500;2023-02-23T19:06:17;54645.75;;;-143.77;88.36
13836;BME280;6988;52.614;13.500;2023-02-23T19:11:11;54637.56;;;-143.77;88.37
13836;BME280;6988;52.614;13.500;2023-02-23T19:16:06;54639.59;;;-143.77;88.56
13836;BME280;6988;52.614;13.500;2023-02-23T19:21:02;54670.38;;;-143.77;88.67
13836;BME280;6988;52.614;13.500;2023-02-23T19:25:53;54649.88;;;-143.77;88.71
13836;BME280;6988;52.614;13.500;2023-02-23T19:30:46;54606.78;;;-143.77;88.58
13836;BME280;6988;52.614;13.500;2023-02-23T19:35:41;54668.34;;;-143.77;88.21
13836;BME280;6988;52.614;13.500;2023-02-23T19:40:33;54641.66;;;-143.77;88.39
13836;BME280;6988;52.614;13.500;2023-02-23T19:45:26;54647.81;;;-143.77;88.68
13836;BME280;6988;52.614;13.500;2023-02-23T19:50:18;54660.13;;;-143.77;88.83
13836;BME280;6988;52.614;13.500;2023-02-23T19:55:13;54725.78;;;-143.77;88.82
13836;BME280;6988;52.614;13.500;2023-02-23T20:00:06;54639.59;;;-143.77;88.10
13836;BME280;6988;52.614;13.500;2023-02-23T20:05:01;54674.50;;;-143.77;86.27
13836;BME280;6988;52.614;13.500;2023-02-23T20:09:53;54684.75;;;-143.77;84.72
13836;BME280;6988;52.614;13.500;2023-02-23T20:14:47;54660.13;;;-143.77;84.81
13836;BME280;6988;52.614;13.500;2023-02-23T20:19:39;54705.28;;;-143.77;84.88
13836;BME280;6988;52.614;13.500;2023-02-23T20:24:31;54670.38;;;-143.77;85.00
13836;BME280;6988;52.614;13.500;2023-02-23T20:29:22;54670.38;;;-143.77;85.00
13836;BME280;6988;52.614;13.500;2023-02-23T20:34:21;54670.38;;;-143.77;85.46
13836;BME280;6988;52.614;13.500;2023-02-23T20:39:14;54688.84;;;-143.77;85.46
13836;BME280;6988;52.614;13.500;2023-02-23T20:44:07;54680.66;;;-143.77;85.43
13836;BME280;6988;52.614;13.500;2023-02-23T20:48:59;54653.97;;;-143.77;85.95
13836;BME280;6988;52.614;13.500;2023-02-23T20:53:54;54709.38;;;-143.77;85.88
13836;BME280;6988;52.614;13.500;2023-02-23T20:58:46;54701.16;;;-143.77;86.36
13836;BME280;6988;52.614;13.500;2023-02-23T21:03:41;54703.22;;;-143.77;86.83
13836;BME280;6988;52.614;13.500;2023-02-23T21:08:33;54688.84;;;-143.77;86.89
13836;BME280;6988;52.614;13.500;2023-02-23T21:13:30;54715.53;;;-143.77;87.08
13836;BME280;6988;52.614;13.500;2023-02-23T21:18:22;54713.47;;;-143.77;87.32
13836;BME280;6988;52.614;13.500;2023-02-23T21:23:14;54672.44;;;-143.77;87.12
13836;BME280;6988;52.614;13.500;2023-02-23T21:28:07;54688.84;;;-143.77;87.11
13836;BME280;6988;52.614;13.500;2023-02-23T21:33:00;54660.13;;;-143.77;87.29
13836;BME280;6988;52.614;13.500;2023-02-23T21:37:53;54692.97;;;-143.77;86.99
13836;BME280;6988;52.614;13.500;2023-02-23T21:42:45;54703.22;;;-143.77;87.19
13836;BME280;6988;52.614;13.500;2023-02-23T21:47:39;54688.84;;;-143.77;87.08
13836;BME280;6988;52.614;13.500;2023-02-23T21:52:33;54699.13;;;-143.77;87.38
13836;BME280;6988;52.614;13.500;2023-02-23T21:57:28;54713.47;;;-143.77;87.32
13836;BME280;6988;52.614;13.500;2023-02-23T22:02:20;54692.97;;;-143.77;86.98
13836;BME280;6988;52.614;13.500;2023-02-23T22:07:12;54709.38;;;-143.77;86.79
13836;BME280;6988;52.614;13.500;2023-02-23T22:12:06;54701.16;;;-143.77;87.04
13836;BME280;6988;52.614;13.500;2023-02-23T22:16:58;54709.38;;;-143.77;86.93
13836;BME280;6988;52.614;13.500;2023-02-23T22:21:50;54713.47;;;-143.77;87.17
13836;BME280;6988;52.614;13.500;2023-02-23T22:26:44;54746.31;;;-143.77;87.28
13836;BME280;6988;52.614;13.500;2023-02-23T22:31:41;54686.81;;;-143.77;87.16
13836;BME280;6988;52.614;13.500;2023-02-23T22:36:33;54674.50;;;-143.77;87.46
13836;BME280;6988;52.614;13.500;2023-02-23T22:41:26;54727.84;;;-143.77;87.58
13836;BME280;6988;52.614;13.500;2023-02-23T23:04:49;54738.09;;;-143.77;88.64
13836;BME280;6988;52.614;13.500;2023-02-23T23:09:43;54738.09;;;-143.77;89.02
13836;BME280;6988;52.614;13.500;2023-02-23T23:14:35;54754.53;;;-143.77;89.71
13836;BME280;6988;52.614;13.500;2023-02-23T23:19:27;54734.00;;;-143.77;89.58
13836;BME280;6988;52.614;13.500;2023-02-23T23:24:22;54721.69;;;-143.77;89.52
13836;BME280;6988;52.614;13.500;2023-02-23T23:29:14;54725.78;;;-143.77;89.21
13836;BME280;6988;52.614;13.500;2023-02-23T23:34:10;54738.09;;;-143.77;89.29
13836;BME280;6988;52.614;13.500;2023-02-23T23:39:03;54717.59;;;-143.77;89.29
13836;BME280;6988;52.614;13.500;2023-02-23T23:43:58;54713.47;;;-143.77;88.85
13836;BME280;6988;52.614;13.500;2023-02-23T23:48:50;54701.16;;;-143.77;89.06
13836;BME280;6988;52.614;13.500;2023-02-23T23:53:43;54676.53;;;-143.77;88.58
13836;BME280;6988;52.614;13.500;2023-02-23T23:58:36;54717.59;;;-143.77;88.36
